Time;durP1;ratioP1;P1;durP2;ratioP2;P2;SDS_P1;SDS_P2;PMS_P1;PMS_P2;Temp;Humidity;BMP_temperature;BMP_pressure;BME280_temperature;BME280_humidity;BME280_pressure;Samples;Min_cycle;Max_cycle;Signal;HPM_P1;HPM_P2
2022/10/22 00:02:19;;;;;;;15.35;9.43;;;15.40;99.90;;;;;;5118375;28;20035;-72
2022/10/22 00:04:46;;;;;;;24.05;11.70;;;15.40;99.90;;;;;;5100241;28;20047;-72
2022/10/22 00:07:12;;;;;;;15.30;9.45;;;15.40;99.90;;;;;;5118036;28;20409;-72
2022/10/22 00:09:38;;;;;;;14.80;8.85;;;15.40;99.90;;;;;;5118256;28;20071;-72
2022/10/22 00:12:04;;;;;;;21.00;11.10;;;15.40;99.90;;;;;;5099909;28;20242;-72
2022/10/22 00:14:30;;;;;;;24.70;11.52;;;15.40;99.90;;;;;;5099928;28;20290;-72
2022/10/22 00:16:55;;;;;;;17.27;9.50;;;15.40;99.90;;;;;;5117757;28;20404;-72
2022/10/22 00:19:21;;;;;;;16.30;7.80;;;15.40;99.90;;;;;;5117620;28;20032;-72
2022/10/22 00:21:47;;;;;;;11.60;7.45;;;15.40;99.90;;;;;;5117994;28;20035;-72
2022/10/22 00:24:12;;;;;;;14.93;8.13;;;15.30;99.90;;;;;;5117955;28;20035;-72
2022/10/22 00:26:39;;;;;;;15.13;8.82;;;15.30;99.90;;;;;;5096154;28;20040;-72
2022/10/22 00:29:04;;;;;;;18.70;9.13;;;15.30;99.90;;;;;;5097469;28;20355;-72
2022/10/22 00:31:30;;;;;;;13.90;7.03;;;15.30;99.90;;;;;;5097535;28;20081;-72
2022/10/22 00:33:56;;;;;;;12.07;7.18;;;15.20;99.90;;;;;;5097164;28;20505;-72
2022/10/22 00:36:22;;;;;;;11.70;7.38;;;15.20;99.90;;;;;;5097136;28;20031;-72
2022/10/22 00:38:47;;;;;;;16.33;9.23;;;15.20;99.90;;;;;;5096971;28;20040;-72
2022/10/22 00:41:13;;;;;;;9.88;6.80;;;15.20;99.90;;;;;;5096650;28;20043;-72
2022/10/22 00:43:57;;;;;;;11.73;7.18;;;15.20;99.90;;;;;;5096997;28;20036;-72
2022/10/22 00:46:23;;;;;;;18.40;9.88;;;15.20;99.90;;;;;;5097033;28;20047;-72
2022/10/22 00:48:50;;;;;;;10.38;6.32;;;15.20;99.90;;;;;;5097162;28;20316;-72
2022/10/22 00:51:15;;;;;;;21.90;9.40;;;15.10;99.90;;;;;;5097259;28;20040;-72
2022/10/22 00:53:52;;;;;;;13.95;6.47;;;15.00;99.90;;;;;;5096888;28;20431;-72
2022/10/22 00:56:19;;;;;;;16.83;7.95;;;14.90;99.90;;;;;;5096848;28;20550;-72
2022/10/22 00:58:48;;;;;;;20.90;9.55;;;14.90;99.90;;;;;;5096687;28;20044;-72
2022/10/22 01:01:18;;;;;;;18.40;8.70;;;14.90;99.90;;;;;;5096707;28;20055;-72
2022/10/22 01:03:44;;;;;;;11.70;6.97;;;14.90;99.90;;;;;;5097028;28;20032;-72
2022/10/22 01:06:17;;;;;;;15.77;8.30;;;14.90;99.90;;;;;;5096948;28;20097;-72
2022/10/22 01:08:51;;;;;;;18.88;9.57;;;14.90;99.90;;;;;;5096709;28;20040;-72
2022/10/22 01:11:37;;;;;;;16.23;9.00;;;14.90;99.90;;;;;;5096552;28;20076;-72
2022/10/22 01:14:32;;;;;;;15.77;7.72;;;15.00;99.90;;;;;;5096665;28;20174;-72
2022/10/22 01:17:16;;;;;;;14.35;7.35;;;15.00;99.90;;;;;;5060263;28;20447;-72
2022/10/22 01:19:59;;;;;;;11.48;7.00;;;14.90;99.90;;;;;;5096855;28;20040;-72
2022/10/22 01:23:06;;;;;;;11.40;6.80;;;14.90;99.90;;;;;;5096828;28;20042;-72
2022/10/22 01:25:37;;;;;;;14.32;7.25;;;15.00;99.90;;;;;;5104269;28;20044;-72
2022/10/22 01:28:25;;;;;;;20.35;8.77;;;14.90;99.90;;;;;;5117073;28;20118;-72
2022/10/22 01:30:55;;;;;;;9.80;6.60;;;15.00;99.90;;;;;;5098823;28;20047;-72
2022/10/22 01:33:23;;;;;;;16.83;8.77;;;14.90;99.90;;;;;;5117137;28;20320;-72
2022/10/22 01:35:51;;;;;;;20.35;8.88;;;14.90;99.90;;;;;;5098782;28;20036;-72
2022/10/22 01:38:21;;;;;;;17.75;9.05;;;14.90;99.90;;;;;;5116991;28;20164;-72
2022/10/22 01:40:48;;;;;;;10.95;7.20;;;14.90;99.90;;;;;;5116516;28;20035;-72
2022/10/22 01:43:14;;;;;;;11.10;6.63;;;14.90;99.90;;;;;;5121065;28;20031;-72
2022/10/22 01:45:44;;;;;;;18.90;8.88;;;14.90;99.90;;;;;;5121064;28;20106;-72
2022/10/22 01:48:39;;;;;;;22.92;10.18;;;14.90;99.90;;;;;;5121064;28;20036;-72
2022/10/22 01:51:55;;;;;;;19.23;9.40;;;14.80;99.90;;;;;;5121009;28;20035;-72
2022/10/22 01:54:48;;;;;;;18.27;9.25;;;14.80;99.90;;;;;;5058364;28;20047;-72
2022/10/22 01:57:16;;;;;;;14.68;7.65;;;14.90;99.90;;;;;;5120908;28;20365;-72
2022/10/22 02:00:03;;;;;;;12.98;8.07;;;14.90;99.90;;;;;;5120689;28;20031;-72
2022/10/22 02:02:37;;;;;;;9.05;6.55;;;14.90;99.90;;;;;;5120817;28;20046;-72
2022/10/22 02:05:14;;;;;;;12.88;7.10;;;14.90;99.90;;;;;;5120694;28;20094;-73
2022/10/22 02:07:46;;;;;;;;;;;15.00;99.90;;;;;;5103118;28;20047;-72
2022/10/22 02:10:12;;;;;;;14.15;7.65;;;14.90;99.90;;;;;;5120187;28;19960;-72
2022/10/22 02:12:41;;;;;;;14.10;7.93;;;14.90;99.90;;;;;;5120543;28;20036;-72
2022/10/22 02:15:08;;;;;;;18.20;7.78;;;14.90;99.90;;;;;;5120487;28;20066;-72
2022/10/22 02:17:36;;;;;;;27.73;10.95;;;15.00;99.90;;;;;;5120364;28;20047;-72
2022/10/22 02:20:17;;;;;;;12.57;7.82;;;15.00;99.90;;;;;;5102276;28;20372;-72
2022/10/22 02:22:44;;;;;;;22.50;9.57;;;15.00;99.90;;;;;;5120411;28;20067;-72
2022/10/22 02:25:10;;;;;;;23.05;9.65;;;15.00;99.90;;;;;;5119866;28;20320;-72
2022/10/22 02:28:18;;;;;;;22.38;9.75;;;15.00;99.90;;;;;;5120264;28;20111;-72
2022/10/22 02:30:50;;;;;;;10.93;7.00;;;15.00;99.90;;;;;;5119443;28;20039;-72
2022/10/22 02:33:25;;;;;;;14.20;7.95;;;15.00;99.90;;;;;;5120229;28;20031;-72
2022/10/22 02:35:51;;;;;;;21.55;10.82;;;15.00;99.90;;;;;;5120151;28;20063;-72
2022/10/22 02:38:18;;;;;;;17.55;9.35;;;14.90;99.90;;;;;;5119961;28;20031;-72
2022/10/22 02:40:45;;;;;;;12.57;7.55;;;14.90;99.90;;;;;;5119625;28;20028;-72
2022/10/22 02:43:10;;;;;;;11.82;6.68;;;14.90;99.90;;;;;;5119671;28;20435;-72
2022/10/22 02:45:36;;;;;;;15.38;8.52;;;14.80;99.90;;;;;;5119558;28;20115;-72
2022/10/22 02:48:02;;;;;;;21.33;9.30;;;14.80;99.90;;;;;;5119868;28;20132;-72
2022/10/22 02:50:28;;;;;;;16.42;8.38;;;14.80;99.90;;;;;;5119785;28;20036;-72
2022/10/22 02:52:54;;;;;;;14.40;8.90;;;14.90;99.90;;;;;;5118238;28;20046;-72
2022/10/22 02:55:19;;;;;;;13.48;8.40;;;14.90;99.90;;;;;;5119737;28;20042;-72
2022/10/22 02:57:45;;;;;;;15.13;9.27;;;14.90;99.90;;;;;;5119309;28;20118;-72
2022/10/22 03:00:12;;;;;;;19.48;10.68;;;14.90;99.90;;;;;;5101781;28;20077;-72
2022/10/22 03:02:37;;;;;;;19.38;9.38;;;14.90;99.90;;;;;;5101707;28;20369;-72
2022/10/22 03:05:04;;;;;;;19.20;10.57;;;15.00;99.90;;;;;;5101227;28;20063;-72
2022/10/22 03:07:29;;;;;;;25.60;11.50;;;14.90;99.90;;;;;;5119511;28;20040;-72
2022/10/22 03:09:55;;;;;;;22.42;10.88;;;14.90;99.90;;;;;;5119183;28;20038;-72
2022/10/22 03:12:21;;;;;;;14.73;9.32;;;15.00;99.90;;;;;;5119371;28;20035;-72
2022/10/22 03:14:47;;;;;;;24.52;11.23;;;14.90;99.90;;;;;;5119158;28;20312;-72
2022/10/22 03:17:12;;;;;;;16.50;10.32;;;14.90;99.90;;;;;;5119281;28;20074;-72
2022/10/22 03:19:38;;;;;;;18.85;9.55;;;14.90;99.90;;;;;;5118902;28;20127;-72
2022/10/22 03:22:14;;;;;;;18.65;9.15;;;14.90;99.90;;;;;;5119157;28;20042;-72
2022/10/22 03:24:51;;;;;;;25.58;11.57;;;14.90;99.90;;;;;;5100754;28;20031;-72
2022/10/22 03:27:20;;;;;;;29.33;13.10;;;14.90;99.90;;;;;;5101191;28;20044;-72
2022/10/22 03:29:47;;;;;;;28.90;11.80;;;14.90;99.90;;;;;;5119142;28;20309;-72
2022/10/22 03:32:13;;;;;;;18.70;9.30;;;14.90;99.90;;;;;;5118767;28;20079;-72
2022/10/22 03:34:38;;;;;;;22.83;11.40;;;14.80;99.90;;;;;;5084014;28;20408;-72
2022/10/22 03:37:04;;;;;;;21.05;11.40;;;14.80;99.90;;;;;;5118906;28;20308;-72
2022/10/22 03:39:33;;;;;;;14.15;8.82;;;14.90;99.90;;;;;;5118717;28;20036;-72
2022/10/22 03:41:59;;;;;;;24.65;12.88;;;14.90;99.90;;;;;;5118415;28;20114;-72
2022/10/22 03:44:26;;;;;;;19.50;10.98;;;14.90;99.90;;;;;;5118719;28;20278;-73
2022/10/22 03:46:52;;;;;;;17.17;9.68;;;14.90;99.90;;;;;;5118681;28;20043;-72
2022/10/22 03:49:17;;;;;;;27.25;13.02;;;14.90;99.90;;;;;;5118610;28;20046;-72
2022/10/22 03:51:43;;;;;;;21.20;10.77;;;14.90;99.90;;;;;;5118382;28;20054;-72
2022/10/22 03:54:09;;;;;;;20.95;10.73;;;14.90;99.90;;;;;;5118255;28;20032;-72
2022/10/22 03:56:34;;;;;;;14.85;9.30;;;14.80;99.90;;;;;;5099849;28;20051;-72
2022/10/22 03:59:02;;;;;;;25.92;12.05;;;14.70;99.90;;;;;;5118060;28;20122;-72
2022/10/22 04:01:29;;;;;;;20.95;10.55;;;14.60;99.90;;;;;;5118686;28;20036;-72
2022/10/22 04:03:55;;;;;;;18.63;10.20;;;14.60;99.90;;;;;;5117756;28;20039;-72
2022/10/22 04:06:21;;;;;;;23.50;10.65;;;14.70;99.90;;;;;;5100049;28;20331;-72
2022/10/22 04:08:47;;;;;;;26.38;11.77;;;14.60;99.90;;;;;;5118215;28;20058;-72
2022/10/22 04:11:14;;;;;;;26.55;11.75;;;14.50;99.90;;;;;;5117736;28;20071;-72
2022/10/22 04:13:40;;;;;;;21.65;10.95;;;14.40;99.90;;;;;;5118159;28;20047;-72
2022/10/22 04:16:13;;;;;;;27.67;12.90;;;14.40;99.90;;;;;;5117829;28;20067;-72
2022/10/22 04:18:39;;;;;;;18.42;10.30;;;14.50;99.90;;;;;;5099838;28;20309;-72
2022/10/22 04:21:07;;;;;;;21.92;10.38;;;14.60;99.90;;;;;;5117657;28;20459;-72
2022/10/22 04:23:32;;;;;;;21.67;11.18;;;14.60;99.90;;;;;;5117955;28;20297;-72
2022/10/22 04:26:06;;;;;;;28.20;14.45;;;14.60;99.90;;;;;;5117406;28;20108;-72
2022/10/22 04:28:33;;;;;;;18.15;9.65;;;14.60;99.90;;;;;;5117854;28;20048;-72
2022/10/22 04:30:58;;;;;;;21.42;11.23;;;14.50;99.90;;;;;;5117833;28;20039;-72
2022/10/22 04:33:24;;;;;;;21.13;12.02;;;14.40;99.90;;;;;;5117768;28;20050;-72
2022/10/22 04:35:50;;;;;;;24.35;12.57;;;14.40;99.90;;;;;;5117458;28;20042;-72
2022/10/22 04:38:16;;;;;;;15.50;11.02;;;14.40;99.90;;;;;;5117588;28;20043;-72
2022/10/22 04:40:42;;;;;;;26.90;13.20;;;14.40;99.90;;;;;;5117196;28;20395;-72
2022/10/22 04:43:07;;;;;;;21.15;10.80;;;14.40;99.90;;;;;;5117620;28;20032;-72
2022/10/22 04:45:33;;;;;;;24.95;12.98;;;14.40;99.90;;;;;;5117569;28;20084;-72
2022/10/22 04:47:59;;;;;;;22.58;11.55;;;14.40;99.90;;;;;;5117518;28;20046;-72
2022/10/22 04:50:25;;;;;;;23.70;12.27;;;14.40;99.90;;;;;;5117472;28;20032;-72
2022/10/22 04:52:51;;;;;;;19.60;10.90;;;14.40;99.90;;;;;;5117447;28;20047;-72
2022/10/22 04:55:17;;;;;;;18.13;11.65;;;14.30;99.90;;;;;;5117187;28;20051;-72
2022/10/22 04:57:42;;;;;;;18.23;11.75;;;14.30;99.90;;;;;;5117330;28;20058;-72
2022/10/22 05:00:08;;;;;;;24.80;13.73;;;14.30;99.90;;;;;;5117073;28;20075;-72
2022/10/22 05:02:34;;;;;;;18.85;11.07;;;14.50;99.90;;;;;;5117284;28;20328;-72
2022/10/22 05:05:00;;;;;;;24.88;12.45;;;14.40;99.90;;;;;;5116972;28;20042;-72
2022/10/22 05:07:26;;;;;;;23.80;12.85;;;14.50;99.90;;;;;;5098970;28;20046;-72
2022/10/22 05:09:53;;;;;;;30.85;15.10;;;14.50;99.90;;;;;;5117203;28;20032;-72
2022/10/22 05:12:18;;;;;;;40.50;16.15;;;14.50;99.90;;;;;;5116751;28;20112;-72
2022/10/22 05:14:44;;;;;;;26.42;13.55;;;14.60;99.90;;;;;;5116955;28;20044;-72
2022/10/22 05:17:10;;;;;;;24.38;13.63;;;14.60;99.90;;;;;;5116106;28;20123;-72
2022/10/22 05:19:36;;;;;;;19.38;11.60;;;14.70;99.90;;;;;;5116752;28;20122;-72
2022/10/22 05:22:03;;;;;;;29.42;14.57;;;14.70;99.90;;;;;;5116807;28;20039;-72
2022/10/22 05:24:30;;;;;;;29.00;13.82;;;14.70;99.90;;;;;;5117058;28;20040;-72
2022/10/22 05:26:57;;;;;;;22.55;12.40;;;14.60;99.90;;;;;;5116595;28;20050;-72
2022/10/22 05:29:24;;;;;;;31.15;13.15;;;14.50;99.90;;;;;;5116712;28;20043;-72
2022/10/22 05:31:49;;;;;;;20.05;11.60;;;14.60;99.90;;;;;;5117067;28;20073;-72
2022/10/22 05:34:16;;;;;;;34.92;15.20;;;14.60;99.90;;;;;;5116985;28;20369;-72
2022/10/22 05:36:42;;;;;;;26.27;14.60;;;14.60;99.90;;;;;;5117008;28;20333;-72
2022/10/22 05:39:08;;;;;;;20.63;10.77;;;14.70;99.90;;;;;;5116910;28;20057;-72
2022/10/22 05:41:34;;;;;;;20.63;11.93;;;14.70;99.90;;;;;;5116253;28;20032;-72
2022/10/22 05:44:00;;;;;;;21.27;11.32;;;14.60;99.90;;;;;;5098637;28;20039;-72
2022/10/22 05:46:28;;;;;;;15.30;10.25;;;14.70;99.90;;;;;;5116853;28;20036;-72
2022/10/22 05:48:59;;;;;;;23.30;12.07;;;14.70;99.90;;;;;;5116543;28;20437;-72
2022/10/22 05:51:26;;;;;;;19.17;10.50;;;14.60;99.90;;;;;;5098811;28;20328;-72
2022/10/22 05:53:58;;;;;;;24.50;12.20;;;14.60;99.90;;;;;;5116517;28;20358;-72
2022/10/22 05:56:26;;;;;;;23.60;12.90;;;14.60;99.90;;;;;;5116795;28;20040;-72
2022/10/22 05:58:52;;;;;;;20.45;11.48;;;14.60;99.90;;;;;;5116742;28;20123;-72
2022/10/22 06:01:23;;;;;;;26.83;11.95;;;14.50;99.90;;;;;;5116838;28;20054;-72
2022/10/22 06:03:53;;;;;;;22.85;12.32;;;14.50;99.90;;;;;;5098461;28;20381;-72
2022/10/22 06:06:34;;;;;;;21.45;12.88;;;14.40;99.90;;;;;;5116775;28;20107;-72
2022/10/22 06:09:05;;;;;;;24.33;14.25;;;14.40;99.90;;;;;;5098374;28;20378;-72
2022/10/22 06:11:31;;;;;;;20.52;10.90;;;14.50;99.90;;;;;;5116018;28;20042;-72
2022/10/22 06:13:57;;;;;;;19.88;11.73;;;14.40;99.90;;;;;;5116375;28;20126;-72
2022/10/22 06:16:22;;;;;;;27.70;14.68;;;14.40;99.90;;;;;;5116696;28;20051;-72
2022/10/22 06:18:48;;;;;;;25.35;13.23;;;14.40;99.90;;;;;;5116497;28;20361;-72
2022/10/22 06:21:15;;;;;;;18.35;10.85;;;14.50;99.90;;;;;;5116581;28;20047;-72
2022/10/22 06:23:42;;;;;;;32.35;15.80;;;14.40;99.90;;;;;;5116506;28;20118;-72
2022/10/22 06:26:07;;;;;;;21.17;11.88;;;14.50;99.90;;;;;;5116192;28;20425;-72
2022/10/22 06:28:34;;;;;;;22.90;12.50;;;14.50;99.90;;;;;;5119376;28;20133;-72
2022/10/22 06:31:01;;;;;;;27.58;12.20;;;14.60;99.90;;;;;;5120111;28;20050;-72
2022/10/22 06:33:29;;;;;;;24.10;12.73;;;14.50;99.90;;;;;;5119821;28;20509;-72
2022/10/22 06:36:10;;;;;;;26.52;14.48;;;14.50;99.90;;;;;;5120031;28;20055;-72
2022/10/22 06:38:36;;;;;;;23.63;12.35;;;14.70;99.90;;;;;;5120080;28;20114;-72
2022/10/22 06:41:20;;;;;;;25.95;11.50;;;14.70;99.90;;;;;;5119592;28;20369;-72
2022/10/22 06:43:46;;;;;;;23.33;12.50;;;14.80;99.90;;;;;;5101582;28;20044;-72
2022/10/22 06:46:17;;;;;;;28.85;13.85;;;14.70;99.90;;;;;;5119834;28;20201;-72
2022/10/22 06:48:47;;;;;;;22.48;11.73;;;14.70;99.90;;;;;;5119728;28;20043;-72
2022/10/22 06:51:13;;;;;;;23.15;12.43;;;14.70;99.90;;;;;;5120022;28;20122;-72
2022/10/22 06:53:39;;;;;;;19.45;11.02;;;14.80;99.90;;;;;;5101511;28;20071;-73
2022/10/22 06:56:11;;;;;;;20.23;11.80;;;14.70;99.90;;;;;;5101325;28;20047;-73
2022/10/22 06:58:37;;;;;;;22.58;12.35;;;14.60;99.90;;;;;;5119515;28;20131;-73
2022/10/22 07:01:09;;;;;;;22.10;11.23;;;14.70;99.90;;;;;;5101703;28;20036;-73
2022/10/22 07:03:36;;;;;;;22.98;12.05;;;14.80;99.90;;;;;;5119467;28;20078;-73
2022/10/22 07:06:04;;;;;;;27.63;11.82;;;14.90;99.90;;;;;;5119504;28;20044;-73
2022/10/22 07:08:30;;;;;;;18.98;9.88;;;14.90;99.90;;;;;;5119419;28;20075;-73
2022/10/22 07:10:57;;;;;;;19.58;10.32;;;15.00;99.90;;;;;;5100669;28;20365;-73
2022/10/22 07:13:23;;;;;;;20.48;10.80;;;15.00;99.90;;;;;;5119313;28;20371;-74
2022/10/22 07:15:53;;;;;;;26.75;11.98;;;15.00;99.90;;;;;;5118934;28;20088;-72
2022/10/22 07:18:20;;;;;;;18.45;10.57;;;15.00;99.90;;;;;;5118848;28;20453;-72
2022/10/22 07:20:47;;;;;;;17.80;9.40;;;15.00;99.90;;;;;;5119134;28;20047;-72
2022/10/22 07:23:13;;;;;;;24.55;9.65;;;15.00;99.90;;;;;;5118852;28;20448;-71
2022/10/22 07:25:41;;;;;;;21.85;10.18;;;15.10;99.90;;;;;;5118602;28;20094;-71
2022/10/22 07:28:06;;;;;;;21.00;10.05;;;15.10;99.90;;;;;;5119036;28;20093;-71
2022/10/22 07:30:37;;;;;;;17.73;9.18;;;15.10;99.90;;;;;;5118628;28;20082;-71
2022/10/22 07:33:03;;;;;;;22.48;9.45;;;15.20;99.90;;;;;;5119029;28;20078;-71
2022/10/22 07:35:28;;;;;;;19.00;8.93;;;15.30;99.90;;;;;;5118575;28;20071;-71
2022/10/22 07:37:54;;;;;;;26.17;11.15;;;15.30;99.90;;;;;;5118788;28;20044;-71
2022/10/22 07:40:20;;;;;;;23.67;10.45;;;15.30;99.90;;;;;;5117709;28;20032;-72
2022/10/22 07:42:45;;;;;;;19.80;8.98;;;15.40;99.90;;;;;;5118736;28;20047;-72
2022/10/22 07:45:11;;;;;;;24.13;10.10;;;15.30;99.90;;;;;;5118673;28;20036;-71
2022/10/22 07:47:37;;;;;;;22.42;9.27;;;15.40;99.90;;;;;;5118629;28;20035;-72
2022/10/22 07:50:03;;;;;;;25.88;9.45;;;15.40;99.90;;;;;;5118309;28;20092;-73
2022/10/22 07:52:29;;;;;;;22.35;8.73;;;15.40;99.90;;;;;;5118652;28;20075;-71
2022/10/22 07:54:54;;;;;;;20.30;8.40;;;15.40;99.90;;;;;;5118321;28;20199;-70
2022/10/22 07:57:20;;;;;;;21.33;8.90;;;15.40;99.90;;;;;;5118416;28;20100;-70
2022/10/22 07:59:46;;;;;;;16.45;7.97;;;15.40;99.90;;;;;;5100432;28;20036;-72
2022/10/22 08:02:11;;;;;;;18.63;7.80;;;15.60;99.90;;;;;;5118350;28;20039;-71
2022/10/22 08:04:38;;;;;;;16.13;7.72;;;15.50;99.90;;;;;;5118041;28;20122;-71
2022/10/22 08:07:04;;;;;;;24.45;11.00;;;15.50;99.90;;;;;;5118284;28;20046;-71
2022/10/22 08:09:29;;;;;;;19.05;7.65;;;15.50;99.90;;;;;;5118194;28;20062;-70
2022/10/22 08:11:55;;;;;;;20.85;8.07;;;15.50;99.90;;;;;;5117774;28;20035;-70
2022/10/22 08:14:21;;;;;;;15.50;7.22;;;15.60;99.90;;;;;;5117817;28;20036;-70
2022/10/22 08:16:46;;;;;;;21.65;8.52;;;15.70;99.90;;;;;;5118093;28;20051;-71
2022/10/22 08:19:12;;;;;;;23.23;9.25;;;15.60;99.90;;;;;;5117942;28;20044;-71
2022/10/22 08:21:38;;;;;;;12.35;6.18;;;15.60;99.90;;;;;;5118012;28;20039;-71
2022/10/22 08:24:05;;;;;;;14.00;7.10;;;15.50;99.90;;;;;;5117973;28;20136;-71
2022/10/22 08:26:31;;;;;;;19.38;7.00;;;15.50;99.90;;;;;;5117508;28;20372;-70
2022/10/22 08:28:57;;;;;;;21.50;7.32;;;15.40;99.90;;;;;;5117854;28;20093;-70
2022/10/22 08:31:23;;;;;;;15.45;6.15;;;15.50;99.90;;;;;;5117805;28;20425;-71
2022/10/22 08:33:49;;;;;;;19.83;7.10;;;15.50;99.90;;;;;;5117823;28;20096;-70
2022/10/22 08:36:14;;;;;;;20.10;7.15;;;15.50;99.90;;;;;;5117779;28;20051;-71
2022/10/22 08:38:40;;;;;;;16.85;7.18;;;15.60;99.90;;;;;;5082679;28;20048;-72
2022/10/22 08:41:17;;;;;;;16.08;6.63;;;15.70;99.90;;;;;;5120050;28;20043;-73
2022/10/22 08:44:02;;;;;;;14.80;6.75;;;15.80;99.90;;;;;;5117830;28;20501;-71
2022/10/22 08:46:36;;;;;;;16.58;6.35;;;15.80;99.90;;;;;;5117533;28;20138;-71
2022/10/22 08:49:04;;;;;;;12.23;6.95;;;15.80;99.90;;;;;;5117589;28;20039;-71
2022/10/22 08:51:33;;;;;;;15.75;6.40;;;15.90;99.90;;;;;;5116603;28;20039;-71
2022/10/22 08:54:17;;;;;;;19.40;6.50;;;15.80;99.90;;;;;;5099425;28;20424;-70
2022/10/22 08:56:48;;;;;;;16.98;6.38;;;15.90;99.90;;;;;;5117445;28;20040;-71
2022/10/22 08:59:34;;;;;;;16.10;5.78;;;15.90;99.90;;;;;;5117415;28;20044;-70
2022/10/22 09:02:02;;;;;;;22.60;6.68;;;15.90;99.90;;;;;;5117134;28;20480;-71
2022/10/22 09:05:20;;;;;;;15.50;6.18;;;16.10;99.90;;;;;;5117025;28;20424;-71
2022/10/22 09:07:49;;;;;;;21.55;5.90;;;16.30;99.90;;;;;;5093233;28;20096;-71
2022/10/22 09:10:16;;;;;;;18.60;6.60;;;16.30;99.90;;;;;;5117280;28;20077;-71
2022/10/22 09:12:42;;;;;;;15.93;5.47;;;16.40;99.90;;;;;;5099005;28;20036;-72
2022/10/22 09:15:13;;;;;;;15.98;5.85;;;16.40;99.90;;;;;;5116956;28;20566;-71
2022/10/22 09:18:05;;;;;;;24.08;5.40;;;16.50;99.90;;;;;;5117160;28;20137;-72
2022/10/22 09:20:53;;;;;;;21.40;5.28;;;16.50;99.90;;;;;;5103543;28;20044;-72
2022/10/22 09:23:48;;;;;;;26.08;5.53;;;16.60;99.90;;;;;;5117210;28;20028;-71
2022/10/22 09:26:16;;;;;;;19.67;5.50;;;16.60;99.90;;;;;;5116778;28;20432;-71
2022/10/22 09:28:47;;;;;;;13.65;4.25;;;16.60;99.90;;;;;;5116757;28;20429;-71
2022/10/22 09:31:14;;;;;;;19.88;5.28;;;16.60;99.90;;;;;;5116851;28;20071;-70
2022/10/22 09:33:41;;;;;;;13.32;4.93;;;16.80;99.90;;;;;;5117068;28;20036;-71
2022/10/22 09:36:11;;;;;;;17.52;4.95;;;16.80;99.90;;;;;;5081904;28;20047;-71
2022/10/22 09:38:46;;;;;;;20.48;4.97;;;16.90;99.90;;;;;;5117042;28;20039;-71
2022/10/22 09:41:12;;;;;;;15.05;4.65;;;17.00;99.90;;;;;;5116625;28;20114;-71
2022/10/22 09:43:38;;;;;;;16.90;4.70;;;17.10;99.90;;;;;;5116952;28;20040;-71
2022/10/22 09:46:07;;;;;;;11.80;4.00;;;17.20;99.90;;;;;;5116984;28;20269;-71
2022/10/22 09:48:40;;;;;;;15.60;4.15;;;17.30;99.90;;;;;;5116900;28;20079;-71
2022/10/22 09:51:51;;;;;;;15.80;4.68;;;17.30;99.90;;;;;;5116926;28;20043;-71
2022/10/22 09:54:23;;;;;;;13.23;3.83;;;17.30;99.90;;;;;;5014489;28;20049;-71
2022/10/22 09:56:57;;;;;;;12.73;4.25;;;17.40;99.90;;;;;;5014453;28;20395;-87
2022/10/22 09:59:36;;;;;;;12.95;4.10;;;17.30;99.90;;;;;;5060566;28;20091;-87
2022/10/22 10:02:08;;;;;;;11.55;3.63;;;17.10;99.90;;;;;;5082421;28;20055;-69
2022/10/22 10:04:39;;;;;;;16.52;4.53;;;17.10;99.90;;;;;;5120699;28;20075;-71
2022/10/22 10:07:25;;;;;;;15.23;4.18;;;17.10;99.90;;;;;;5102728;28;20035;-71
2022/10/22 10:09:52;;;;;;;;;;;17.10;99.90;;;;;;5106866;28;20092;-74
2022/10/22 10:12:30;;;;;;;;;;;17.10;99.90;;;;;;5113177;28;20248;-71
2022/10/22 10:15:01;;;;;;;14.45;4.35;;;17.20;99.90;;;;;;5112075;28;19920;-72
2022/10/22 10:17:55;;;;;;;13.30;4.80;;;17.20;99.90;;;;;;5120277;28;20363;-72
2022/10/22 10:20:39;;;;;;;10.80;4.30;;;17.20;99.90;;;;;;5120172;28;20043;-72
2022/10/22 10:23:16;;;;;;;16.40;5.55;;;17.00;99.90;;;;;;5119975;28;20047;-72
2022/10/22 10:25:48;;;;;;;16.05;5.72;;;17.00;99.90;;;;;;5119603;28;20051;-71
2022/10/22 10:28:29;;;;;;;18.38;6.13;;;17.00;99.90;;;;;;5101578;28;20294;-71
2022/10/22 10:31:01;;;;;;;10.38;5.25;;;17.00;99.90;;;;;;5120029;28;20151;-68
2022/10/22 10:33:58;;;;;;;17.40;5.78;;;16.90;99.90;;;;;;5119589;28;20432;-69
2022/10/22 10:36:34;;;;;;;14.82;5.88;;;16.90;99.90;;;;;;5111769;28;20337;-70
2022/10/22 10:39:26;;;;;;;13.63;6.03;;;16.90;99.90;;;;;;5117437;28;20036;-69
2022/10/22 10:42:16;;;;;;;17.40;6.35;;;16.90;99.90;;;;;;5070209;28;20310;-69
2022/10/22 10:44:57;;;;;;;15.27;6.50;;;17.20;99.90;;;;;;5119534;28;20088;-68
2022/10/22 10:48:03;;;;;;;12.32;5.63;;;17.40;99.90;;;;;;5104638;28;20149;-69
2022/10/22 10:51:00;;;;;;;27.00;6.32;;;17.40;99.90;;;;;;5106969;28;20047;-70
2022/10/22 10:54:03;;;;;;;11.43;5.35;;;17.40;99.90;;;;;;5117070;28;20340;-70
2022/10/22 10:56:50;;;;;;;10.98;5.10;;;17.50;99.90;;;;;;5118889;28;20050;-69
2022/10/22 10:59:30;;;;;;;13.85;4.88;;;17.50;99.90;;;;;;5119173;28;20119;-69
2022/10/22 11:02:31;;;;;;;16.27;7.22;;;17.50;99.90;;;;;;5119345;28;20046;-69
2022/10/22 11:05:12;;;;;;;17.13;5.82;;;17.60;99.90;;;;;;5119501;28;20074;-69
2022/10/22 11:07:46;;;;;;;14.52;5.30;;;17.50;99.90;;;;;;5101152;28;20425;-75
2022/10/22 11:10:45;;;;;;;17.27;6.65;;;17.50;99.90;;;;;;5119254;28;20067;-73
2022/10/22 11:13:19;;;;;;;15.88;6.00;;;17.40;99.90;;;;;;5119007;28;20040;-71
2022/10/22 11:15:59;;;;;;;19.35;7.57;;;17.30;99.90;;;;;;5118840;28;20119;-71
2022/10/22 11:18:40;;;;;;;15.85;6.57;;;17.30;99.90;;;;;;5119250;28;20100;-72
2022/10/22 11:21:06;;;;;;;24.63;7.82;;;17.20;99.90;;;;;;5119251;28;20131;-77
2022/10/22 11:23:47;;;;;;;14.25;7.28;;;17.20;99.90;;;;;;5119207;28;20039;-73
2022/10/22 11:26:45;;;;;;;16.20;6.90;;;17.00;99.90;;;;;;5100585;28;20112;-75
2022/10/22 11:29:32;;;;;;;18.55;7.00;;;16.90;99.90;;;;;;5118814;28;20040;-73
2022/10/22 11:32:00;;;;;;;23.05;8.13;;;16.80;99.90;;;;;;5118423;28;20051;-73
2022/10/22 11:34:45;;;;;;;20.20;8.43;;;16.80;99.90;;;;;;5101618;28;20126;-72
2022/10/22 11:37:13;;;;;;;21.75;8.13;;;16.70;99.90;;;;;;5119033;28;20043;-74
2022/10/22 11:39:55;;;;;;;16.20;7.65;;;16.90;99.90;;;;;;5118825;28;20043;-72
2022/10/22 11:42:42;;;;;;;22.75;9.32;;;17.00;99.90;;;;;;5118468;28;20120;-72
2022/10/22 11:45:16;;;;;;;17.65;7.88;;;17.20;99.90;;;;;;5100573;28;20067;-72
2022/10/22 11:48:13;;;;;;;15.50;7.38;;;17.80;99.90;;;;;;5100632;28;20321;-72
2022/10/22 11:50:56;;;;;;;14.35;7.57;;;18.00;99.90;;;;;;5100541;28;20051;-72
2022/10/22 11:53:25;;;;;;;17.35;7.97;;;18.20;99.90;;;;;;5118610;28;20039;-72
2022/10/22 11:56:06;;;;;;;19.63;8.13;;;18.30;99.90;;;;;;5091416;28;20035;-73
2022/10/22 11:58:43;;;;;;;17.77;7.88;;;18.20;99.90;;;;;;5109879;28;20036;-74
2022/10/22 12:01:09;;;;;;;19.77;8.20;;;18.20;99.90;;;;;;5118085;28;20382;-79
2022/10/22 12:03:44;;;;;;;14.13;6.93;;;18.20;99.90;;;;;;5103364;28;20126;-73
2022/10/22 12:06:14;;;;;;;15.25;7.72;;;18.20;99.90;;;;;;5105839;28;20336;-73
2022/10/22 12:08:48;;;;;;;20.60;7.97;;;18.20;99.90;;;;;;5106285;28;20039;-73
2022/10/22 12:11:48;;;;;;;23.08;8.73;;;17.90;99.90;;;;;;5118479;28;20051;-72
2022/10/22 12:14:25;;;;;;;23.50;8.02;;;17.80;99.90;;;;;;5117772;28;20306;-72
2022/10/22 12:16:56;;;;;;;19.50;8.63;;;17.60;99.90;;;;;;5099894;28;20044;-72
2022/10/22 12:19:26;;;;;;;17.95;7.43;;;17.50;99.90;;;;;;5117742;28;20407;-72
2022/10/22 12:22:00;;;;;;;17.02;8.25;;;17.50;99.90;;;;;;5118015;28;20107;-72
2022/10/22 12:24:33;;;;;;;12.93;7.22;;;17.60;99.90;;;;;;5099717;28;20032;-72
2022/10/22 12:26:59;;;;;;;15.48;6.60;;;17.80;99.90;;;;;;5099911;28;20044;-73
2022/10/22 12:29:25;;;;;;;13.63;6.75;;;17.80;99.90;;;;;;5117867;28;20176;-72
2022/10/22 12:31:51;;;;;;;14.18;5.65;;;18.10;99.90;;;;;;5117718;28;20050;-72
2022/10/22 12:34:21;;;;;;;16.38;5.90;;;18.30;99.90;;;;;;5117724;28;20032;-72
2022/10/22 12:36:49;;;;;;;11.27;5.43;;;18.30;99.90;;;;;;5117769;28;20036;-72
2022/10/22 12:39:21;;;;;;;14.40;5.78;;;18.20;99.90;;;;;;5117638;28;20036;-72
2022/10/22 12:41:47;;;;;;;16.52;6.75;;;18.20;99.90;;;;;;5117322;28;20065;-72
2022/10/22 12:44:15;;;;;;;10.63;5.80;;;18.30;99.90;;;;;;5117338;28;20143;-72
2022/10/22 12:46:47;;;;;;;11.73;5.60;;;18.30;99.90;;;;;;5117327;28;20080;-73
2022/10/22 12:49:18;;;;;;;14.65;5.50;;;18.20;99.90;;;;;;5117582;28;20039;-72
2022/10/22 12:51:44;;;;;;;10.82;5.55;;;18.10;99.90;;;;;;5099475;28;20046;-70
2022/10/22 12:54:21;;;;;;;14.68;5.10;;;18.10;99.90;;;;;;5117511;28;20040;-74
2022/10/22 12:56:47;;;;;;;15.27;5.20;;;18.10;99.90;;;;;;5082358;28;20043;-73